Portland, Oregon
Traffic Map
Current Weather Conditions
Portland, Oregon
Overcast
Overcast
66°
Feels Like: 66°
Wind Chill: 66° Ceiling: 9000
Heat Index: 66° Visibility: 10mi
Dew Point: 58° Wind: 7mph
Humidity: 75% Direction: 170° (S)
Pressure: 29.86in Gusts: 0mph
Raw Report DataKPDX 231753Z 17006KT 10SM SCT075 BKN090 OVC140 19/14 A2986 RMK AO2 SLP109 T01890144 10189 20156 50001
Traffic Incident Summary
Active as of:
Severity:
Category:
InformationThere was an issue retrieving the traffic information for this location. Please try a different location or try again shortly.
Advertisements
Track Severe Weather on mobile